UAE158 ESSA-OMDB
Flight info
| Callsign | UAE158 |
|---|---|
| Flight time | 6h 26m |
| Altitude | 35000 |
| Route | BABAP N5 ODIBI DCT GELDA N5 GARSO DCT VALUV DCT OTVOV/K0909F350 DCT PELUG DCT GITOV/N0487F350 DCT LENOV DCT RAZEC DCT ROMKA DCT KARIL DCT IXUBA DCT BUKEL DCT ARGES DCT RIXEN UL742 REBTA/N0486F370 UL742 MUT UB545 VESAR DCT BALMA UR655 LEBOR/N0488F270 R655 KTN R785 RASLI P559 TRF R23 NEVOL N318 TAMRO T503 KSA M321 RESAL T533 RAPMA DCT KUVSO DCT RIBOT M550 GOLGU DCT UKRAG G783 ASPED Q308 KIPOK/N0489F260 Q568 IMPED |
| Aircraft | B77W/H-SDE1E2E3FGHIJ2J3J4J5M1RWXY/LB1D1 |
Departure
| Time | 2026-04-26 08:00 |
|---|---|
| Airport | Stockholm-Arlanda Airport (ESSA) |
Arrival
| Time | 2026-04-26 14:27 |
|---|---|
| Airport | Dubai International Airport (OMDB) |
| Time | Latitude | Longitude | Altitude | Speed | Heading |
|---|---|---|---|---|---|
| 2026-04-26 07:35 | 59.65508 | 17.93759 | 116 ft | 0 kts | 256° |
| 2026-04-26 07:50 | 59.65509 | 17.93766 | 116 ft | 3 kts | 256° |
| 2026-04-26 07:51 | 59.65516 | 17.93816 | 112 ft | 2 kts | 256° |
| 2026-04-26 07:51 | 59.65519 | 17.93859 | 113 ft | 4 kts | 278° |
| 2026-04-26 07:51 | 59.65515 | 17.93890 | 113 ft | 4 kts | 322° |
| 2026-04-26 07:51 | 59.65496 | 17.93906 | 113 ft | 4 kts | 351° |
| 2026-04-26 07:52 | 59.65473 | 17.93913 | 113 ft | 1 kts | 347° |
| 2026-04-26 07:54 | 59.65507 | 17.93897 | 114 ft | 11 kts | 347° |
| 2026-04-26 07:54 | 59.65613 | 17.93845 | 118 ft | 17 kts | 346° |
| 2026-04-26 07:54 | 59.65664 | 17.93698 | 118 ft | 17 kts | 267° |
| 2026-04-26 07:54 | 59.65629 | 17.93392 | 111 ft | 24 kts | 256° |
| 2026-04-26 07:55 | 59.65588 | 17.93071 | 110 ft | 24 kts | 256° |
| 2026-04-26 07:55 | 59.65548 | 17.92751 | 112 ft | 24 kts | 256° |
| 2026-04-26 07:55 | 59.65484 | 17.92454 | 110 ft | 24 kts | 229° |
| 2026-04-26 07:55 | 59.65346 | 17.92281 | 110 ft | 24 kts | 192° |
| 2026-04-26 07:56 | 59.65183 | 17.92214 | 109 ft | 24 kts | 191° |
| 2026-04-26 07:56 | 59.65019 | 17.92152 | 111 ft | 24 kts | 190° |
| 2026-04-26 07:56 | 59.64854 | 17.92096 | 111 ft | 24 kts | 189° |
| 2026-04-26 07:56 | 59.64690 | 17.92038 | 111 ft | 24 kts | 191° |
| 2026-04-26 07:57 | 59.64525 | 17.91977 | 115 ft | 24 kts | 190° |
| 2026-04-26 07:57 | 59.64361 | 17.91916 | 116 ft | 24 kts | 191° |
| 2026-04-26 07:57 | 59.64197 | 17.91853 | 117 ft | 24 kts | 191° |
| 2026-04-26 07:57 | 59.64033 | 17.91793 | 116 ft | 24 kts | 191° |
| 2026-04-26 07:58 | 59.63870 | 17.91723 | 111 ft | 24 kts | 201° |
| 2026-04-26 07:58 | 59.63743 | 17.91533 | 109 ft | 21 kts | 234° |
| 2026-04-26 07:58 | 59.63754 | 17.91339 | 112 ft | 14 kts | 320° |
| 2026-04-26 07:58 | 59.63801 | 17.91346 | 110 ft | 7 kts | 20° |
| 2026-04-26 07:59 | 59.63828 | 17.91359 | 111 ft | 0 kts | 11° |
| 2026-04-26 07:59 | 59.63829 | 17.91360 | 111 ft | 3 kts | 11° |
| 2026-04-26 08:00 | 59.64027 | 17.91432 | 112 ft | 66 kts | 10° |
| 2026-04-26 08:00 | 59.64725 | 17.91683 | 110 ft | 135 kts | 10° |
| 2026-04-26 08:00 | 59.65834 | 17.92066 | 231 ft | 175 kts | 6° |
| 2026-04-26 08:00 | 59.67026 | 17.92519 | 916 ft | 174 kts | 6° |
| 2026-04-26 08:01 | 59.68193 | 17.92972 | 1761 ft | 173 kts | 6° |
| 2026-04-26 08:01 | 59.69391 | 17.93426 | 2383 ft | 176 kts | 6° |
| 2026-04-26 08:01 | 59.70612 | 17.93880 | 3005 ft | 181 kts | 7° |
| 2026-04-26 08:01 | 59.71867 | 17.94348 | 3652 ft | 184 kts | 6° |
| 2026-04-26 08:02 | 59.73120 | 17.94805 | 4406 ft | 182 kts | 8° |
| 2026-04-26 08:02 | 59.74286 | 17.95830 | 4928 ft | 195 kts | 32° |
| 2026-04-26 08:02 | 59.75184 | 17.97957 | 5564 ft | 208 kts | 54° |
| 2026-04-26 08:02 | 59.75662 | 18.00717 | 5922 ft | 233 kts | 78° |
| 2026-04-26 08:03 | 59.75627 | 18.02960 | 5976 ft | 255 kts | 91° |
| 2026-04-26 08:03 | 59.75458 | 18.06560 | 6390 ft | 268 kts | 88° |
| 2026-04-26 08:03 | 59.75370 | 18.10311 | 7046 ft | 274 kts | 86° |
| 2026-04-26 08:03 | 59.75297 | 18.15336 | 8069 ft | 276 kts | 84° |
| 2026-04-26 08:04 | 59.75271 | 18.19150 | 8881 ft | 277 kts | 83° |
| 2026-04-26 08:04 | 59.75262 | 18.21678 | 9394 ft | 278 kts | 82° |
| 2026-04-26 08:04 | 59.75251 | 18.25538 | 10177 ft | 281 kts | 82° |
| 2026-04-26 08:04 | 59.75242 | 18.29508 | 10608 ft | 298 kts | 82° |
| 2026-04-26 08:05 | 59.75238 | 18.33801 | 10811 ft | 322 kts | 82° |
| 2026-04-26 08:05 | 59.75133 | 18.38410 | 10958 ft | 350 kts | 94° |
| 2026-04-26 08:05 | 59.74125 | 18.43037 | 11330 ft | 385 kts | 122° |
| 2026-04-26 08:05 | 59.72056 | 18.46624 | 12032 ft | 407 kts | 148° |
| 2026-04-26 08:06 | 59.69433 | 18.48938 | 12768 ft | 416 kts | 156° |
| 2026-04-26 08:06 | 59.66695 | 18.50997 | 13639 ft | 423 kts | 157° |
| 2026-04-26 08:06 | 59.63960 | 18.53041 | 14466 ft | 429 kts | 157° |
| 2026-04-26 08:06 | 59.61153 | 18.55213 | 15162 ft | 438 kts | 156° |
| 2026-04-26 08:07 | 59.58279 | 18.57520 | 15847 ft | 448 kts | 155° |
| 2026-04-26 08:07 | 59.55378 | 18.59901 | 16574 ft | 456 kts | 155° |
| 2026-04-26 08:07 | 59.52420 | 18.62355 | 17286 ft | 464 kts | 155° |
| 2026-04-26 08:07 | 59.49416 | 18.64850 | 17998 ft | 473 kts | 155° |
| 2026-04-26 08:08 | 59.46358 | 18.67380 | 18620 ft | 481 kts | 155° |
| 2026-04-26 08:08 | 59.43241 | 18.69947 | 19212 ft | 489 kts | 155° |
| 2026-04-26 08:08 | 59.39988 | 18.72123 | 19765 ft | 497 kts | 166° |
| 2026-04-26 08:08 | 59.36610 | 18.73439 | 20296 ft | 505 kts | 171° |
| 2026-04-26 08:09 | 59.33101 | 18.74522 | 20893 ft | 512 kts | 172° |
| 2026-04-26 08:09 | 59.29548 | 18.75580 | 21479 ft | 519 kts | 172° |
| 2026-04-26 08:09 | 59.26006 | 18.76692 | 22043 ft | 526 kts | 171° |
| 2026-04-26 08:09 | 59.22363 | 18.77915 | 22602 ft | 533 kts | 171° |
| 2026-04-26 08:10 | 59.18671 | 18.79216 | 23142 ft | 541 kts | 170° |
| 2026-04-26 08:10 | 59.14950 | 18.80556 | 23657 ft | 548 kts | 170° |
| 2026-04-26 08:10 | 59.11184 | 18.81918 | 24138 ft | 553 kts | 170° |
| 2026-04-26 08:10 | 59.07373 | 18.83288 | 24681 ft | 556 kts | 170° |
| 2026-04-26 08:11 | 59.03613 | 18.84627 | 25254 ft | 558 kts | 171° |
| 2026-04-26 08:11 | 58.99774 | 18.85986 | 25792 ft | 561 kts | 171° |
| 2026-04-26 08:11 | 58.95911 | 18.87349 | 26285 ft | 565 kts | 171° |
| 2026-04-26 08:11 | 58.92023 | 18.88716 | 26746 ft | 569 kts | 171° |
| 2026-04-26 08:12 | 58.88097 | 18.90093 | 27209 ft | 573 kts | 171° |
| 2026-04-26 08:12 | 58.84208 | 18.91454 | 27674 ft | 576 kts | 171° |
| 2026-04-26 08:12 | 58.80246 | 18.92838 | 28131 ft | 579 kts | 171° |
| 2026-04-26 08:12 | 58.76260 | 18.94227 | 28553 ft | 582 kts | 171° |
| 2026-04-26 08:13 | 58.72259 | 18.95619 | 28960 ft | 586 kts | 171° |
| 2026-04-26 08:13 | 58.68278 | 18.97001 | 29367 ft | 588 kts | 171° |
| 2026-04-26 08:13 | 58.64251 | 18.98397 | 29894 ft | 588 kts | 171° |
| 2026-04-26 08:13 | 58.60180 | 18.99805 | 30442 ft | 586 kts | 171° |
| 2026-04-26 08:14 | 58.56228 | 19.01169 | 30977 ft | 582 kts | 171° |
| 2026-04-26 08:14 | 58.52243 | 19.02541 | 31565 ft | 578 kts | 171° |
| 2026-04-26 08:14 | 58.48292 | 19.03898 | 32140 ft | 574 kts | 171° |
| 2026-04-26 08:14 | 58.44353 | 19.05247 | 32671 ft | 571 kts | 171° |
| 2026-04-26 08:15 | 58.40451 | 19.06579 | 33200 ft | 569 kts | 171° |
| 2026-04-26 08:15 | 58.36548 | 19.07909 | 33697 ft | 566 kts | 171° |
| 2026-04-26 08:15 | 58.32690 | 19.09221 | 34154 ft | 563 kts | 171° |
| 2026-04-26 08:15 | 58.28876 | 19.10515 | 34548 ft | 561 kts | 171° |
| 2026-04-26 08:16 | 58.25041 | 19.11813 | 34940 ft | 558 kts | 171° |
| 2026-04-26 08:16 | 58.21198 | 19.13110 | 35036 ft | 562 kts | 171° |
| 2026-04-26 08:16 | 58.13491 | 19.15704 | 35013 ft | 559 kts | 171° |
| 2026-04-26 08:17 | 58.05850 | 19.18267 | 35008 ft | 555 kts | 171° |
| 2026-04-26 08:17 | 57.98288 | 19.20791 | 35014 ft | 554 kts | 171° |
| 2026-04-26 08:18 | 57.90690 | 19.23316 | 35023 ft | 555 kts | 171° |
| 2026-04-26 08:18 | 57.83062 | 19.25839 | 35021 ft | 555 kts | 172° |
| 2026-04-26 08:19 | 57.75443 | 19.28349 | 35022 ft | 556 kts | 172° |
| 2026-04-26 08:19 | 57.67790 | 19.30861 | 35020 ft | 557 kts | 172° |
| 2026-04-26 08:20 | 57.60187 | 19.33345 | 35022 ft | 558 kts | 172° |
| 2026-04-26 08:20 | 57.52523 | 19.35838 | 35020 ft | 558 kts | 172° |
| 2026-04-26 08:21 | 57.44846 | 19.38325 | 35020 ft | 558 kts | 172° |
| 2026-04-26 08:21 | 57.37237 | 19.40780 | 35020 ft | 558 kts | 172° |
| 2026-04-26 08:22 | 57.29578 | 19.43240 | 35020 ft | 558 kts | 172° |
| 2026-04-26 08:22 | 57.21907 | 19.45693 | 35025 ft | 558 kts | 172° |
| 2026-04-26 08:23 | 57.14299 | 19.48117 | 35022 ft | 558 kts | 172° |
| 2026-04-26 08:23 | 57.06614 | 19.50554 | 35027 ft | 558 kts | 172° |
| 2026-04-26 08:24 | 56.98981 | 19.52966 | 35023 ft | 558 kts | 172° |
| 2026-04-26 08:24 | 56.91375 | 19.55360 | 35030 ft | 558 kts | 172° |
| 2026-04-26 08:25 | 56.83760 | 19.58882 | 35027 ft | 561 kts | 161° |
| 2026-04-26 08:25 | 56.76505 | 19.64222 | 35031 ft | 561 kts | 158° |
| 2026-04-26 08:26 | 56.69298 | 19.69539 | 35028 ft | 562 kts | 159° |
| 2026-04-26 08:26 | 56.62018 | 19.74775 | 35029 ft | 562 kts | 159° |
| 2026-04-26 08:27 | 56.54704 | 19.79975 | 35026 ft | 563 kts | 159° |
| 2026-04-26 08:27 | 56.47456 | 19.85116 | 35023 ft | 563 kts | 159° |
| 2026-04-26 08:28 | 56.40142 | 19.90291 | 35025 ft | 563 kts | 159° |
| 2026-04-26 08:28 | 56.32836 | 19.95440 | 35024 ft | 563 kts | 159° |
| 2026-04-26 08:29 | 56.25576 | 20.00537 | 35024 ft | 563 kts | 159° |
| 2026-04-26 08:29 | 56.18240 | 20.05518 | 35019 ft | 562 kts | 164° |
| 2026-04-26 08:30 | 56.10670 | 20.08611 | 35033 ft | 558 kts | 174° |
| 2026-04-26 08:30 | 56.02942 | 20.09651 | 35038 ft | 555 kts | 181° |
| 2026-04-26 08:31 | 55.95201 | 20.10382 | 35026 ft | 557 kts | 180° |
| 2026-04-26 08:31 | 55.87462 | 20.11239 | 35033 ft | 557 kts | 180° |
| 2026-04-26 08:32 | 55.79752 | 20.12124 | 35030 ft | 558 kts | 180° |
| 2026-04-26 08:32 | 55.71994 | 20.13356 | 35031 ft | 562 kts | 173° |
| 2026-04-26 08:33 | 55.64377 | 20.16731 | 35040 ft | 565 kts | 162° |
| 2026-04-26 08:33 | 55.57155 | 20.22050 | 35046 ft | 566 kts | 157° |
| 2026-04-26 08:34 | 55.49804 | 20.27035 | 35041 ft | 565 kts | 166° |
| 2026-04-26 08:34 | 55.42106 | 20.29742 | 35037 ft | 561 kts | 176° |
| 2026-04-26 08:35 | 55.34386 | 20.30496 | 35040 ft | 558 kts | 182° |
| 2026-04-26 08:35 | 55.26596 | 20.31107 | 35031 ft | 559 kts | 181° |
| 2026-04-26 08:36 | 55.18818 | 20.31859 | 35038 ft | 560 kts | 179° |
| 2026-04-26 08:36 | 55.11073 | 20.33896 | 35034 ft | 565 kts | 168° |
| 2026-04-26 08:37 | 55.03534 | 20.37673 | 35032 ft | 566 kts | 165° |
| 2026-04-26 08:37 | 54.95944 | 20.41497 | 35023 ft | 567 kts | 166° |
| 2026-04-26 08:38 | 54.88338 | 20.45209 | 35023 ft | 567 kts | 166° |
| 2026-04-26 08:38 | 54.80775 | 20.48847 | 35046 ft | 567 kts | 166° |
| 2026-04-26 08:39 | 54.73155 | 20.52503 | 35043 ft | 567 kts | 166° |
| 2026-04-26 08:39 | 54.65552 | 20.56146 | 35043 ft | 567 kts | 166° |
| 2026-04-26 08:40 | 54.57938 | 20.59782 | 35042 ft | 567 kts | 166° |
| 2026-04-26 08:40 | 54.50367 | 20.63382 | 35041 ft | 566 kts | 166° |
| 2026-04-26 08:41 | 54.42749 | 20.66991 | 35036 ft | 566 kts | 167° |
| 2026-04-26 08:41 | 54.35128 | 20.69828 | 35043 ft | 562 kts | 176° |
| 2026-04-26 08:42 | 54.27365 | 20.70613 | 35043 ft | 557 kts | 183° |
| 2026-04-26 08:42 | 54.19601 | 20.71010 | 35034 ft | 557 kts | 182° |
| 2026-04-26 08:43 | 54.11893 | 20.71490 | 35041 ft | 557 kts | 182° |
| 2026-04-26 08:43 | 54.04125 | 20.72026 | 35044 ft | 558 kts | 182° |
| 2026-04-26 08:44 | 53.96349 | 20.72569 | 35043 ft | 558 kts | 182° |
| 2026-04-26 08:44 | 53.88621 | 20.73099 | 35040 ft | 558 kts | 182° |
| 2026-04-26 08:45 | 53.80857 | 20.73625 | 35044 ft | 558 kts | 182° |
| 2026-04-26 08:45 | 53.73082 | 20.74149 | 35044 ft | 558 kts | 182° |
| 2026-04-26 08:46 | 53.65355 | 20.74669 | 35046 ft | 558 kts | 182° |
| 2026-04-26 08:46 | 53.57591 | 20.75189 | 35044 ft | 558 kts | 182° |
| 2026-04-26 08:47 | 53.49813 | 20.75708 | 35046 ft | 558 kts | 182° |
| 2026-04-26 08:47 | 53.42098 | 20.76221 | 35045 ft | 558 kts | 183° |
| 2026-04-26 08:48 | 53.34325 | 20.76736 | 35049 ft | 558 kts | 183° |
| 2026-04-26 08:48 | 53.27860 | 20.77163 | 35053 ft | 558 kts | 183° |
| 2026-04-26 08:49 | 53.20099 | 20.77673 | 35061 ft | 559 kts | 183° |
| 2026-04-26 08:49 | 53.12307 | 20.78185 | 35067 ft | 559 kts | 183° |
| 2026-04-26 08:50 | 53.04582 | 20.78689 | 35067 ft | 558 kts | 183° |
| 2026-04-26 08:50 | 52.96810 | 20.79196 | 35067 ft | 558 kts | 183° |
| 2026-04-26 08:51 | 52.85156 | 20.79952 | 35079 ft | 558 kts | 183° |
| 2026-04-26 08:52 | 52.77381 | 20.80453 | 35071 ft | 558 kts | 183° |
| 2026-04-26 08:52 | 52.69649 | 20.80950 | 35076 ft | 558 kts | 183° |
| 2026-04-26 08:53 | 52.61932 | 20.81445 | 35069 ft | 558 kts | 184° |
| 2026-04-26 08:53 | 52.54161 | 20.81941 | 35069 ft | 557 kts | 184° |
| 2026-04-26 08:54 | 52.46438 | 20.82433 | 35069 ft | 557 kts | 184° |
| 2026-04-26 08:54 | 52.38672 | 20.82925 | 35070 ft | 557 kts | 184° |
| 2026-04-26 08:55 | 52.30910 | 20.83415 | 35077 ft | 557 kts | 184° |
| 2026-04-26 08:55 | 52.23144 | 20.83904 | 35066 ft | 557 kts | 184° |
| 2026-04-26 08:56 | 52.15386 | 20.84391 | 35061 ft | 557 kts | 184° |
| 2026-04-26 08:56 | 52.07684 | 20.84873 | 35073 ft | 557 kts | 184° |
| 2026-04-26 08:57 | 51.99917 | 20.85357 | 35075 ft | 557 kts | 184° |
| 2026-04-26 08:57 | 51.92204 | 20.85835 | 35076 ft | 556 kts | 184° |
| 2026-04-26 08:58 | 51.84452 | 20.86315 | 35083 ft | 556 kts | 184° |
| 2026-04-26 08:58 | 51.76715 | 20.86792 | 35082 ft | 555 kts | 184° |
| 2026-04-26 08:59 | 51.69046 | 20.87264 | 35072 ft | 554 kts | 184° |
| 2026-04-26 08:59 | 51.61331 | 20.87737 | 35076 ft | 554 kts | 184° |
| 2026-04-26 09:00 | 51.53631 | 20.88206 | 35074 ft | 553 kts | 184° |
| 2026-04-26 09:00 | 51.45928 | 20.88675 | 35075 ft | 553 kts | 184° |
| 2026-04-26 09:01 | 51.38235 | 20.89141 | 35074 ft | 552 kts | 184° |
| 2026-04-26 09:01 | 51.30559 | 20.89605 | 35078 ft | 552 kts | 184° |
| 2026-04-26 09:02 | 51.22921 | 20.90065 | 35080 ft | 551 kts | 184° |
| 2026-04-26 09:02 | 51.15248 | 20.90525 | 35086 ft | 551 kts | 184° |
| 2026-04-26 09:03 | 51.07587 | 20.90984 | 35078 ft | 550 kts | 184° |
| 2026-04-26 09:03 | 50.99990 | 20.91437 | 35078 ft | 549 kts | 184° |
| 2026-04-26 09:04 | 50.92331 | 20.91892 | 35076 ft | 549 kts | 184° |
| 2026-04-26 09:04 | 50.84701 | 20.92344 | 35076 ft | 548 kts | 184° |
| 2026-04-26 09:05 | 50.77132 | 20.92791 | 35073 ft | 547 kts | 184° |
| 2026-04-26 09:05 | 50.69521 | 20.93239 | 35065 ft | 546 kts | 184° |
| 2026-04-26 09:06 | 50.61923 | 20.93685 | 35067 ft | 545 kts | 184° |
| 2026-04-26 09:06 | 50.54336 | 20.94128 | 35075 ft | 544 kts | 184° |
| 2026-04-26 09:07 | 50.46814 | 20.94566 | 35077 ft | 543 kts | 184° |
| 2026-04-26 09:07 | 50.39247 | 20.95006 | 35072 ft | 543 kts | 184° |
| 2026-04-26 09:08 | 50.31690 | 20.95443 | 35074 ft | 542 kts | 184° |
| 2026-04-26 09:08 | 50.24202 | 20.95876 | 35074 ft | 541 kts | 184° |
| 2026-04-26 09:09 | 50.16675 | 20.96309 | 35072 ft | 540 kts | 184° |
| 2026-04-26 09:09 | 50.09169 | 20.96739 | 35072 ft | 540 kts | 184° |
| 2026-04-26 09:10 | 50.01649 | 20.97169 | 35067 ft | 539 kts | 184° |
| 2026-04-26 09:10 | 49.94187 | 20.97595 | 35072 ft | 538 kts | 184° |
| 2026-04-26 09:11 | 49.86689 | 20.98021 | 35066 ft | 538 kts | 184° |
| 2026-04-26 09:11 | 49.79241 | 20.98443 | 35064 ft | 537 kts | 184° |
| 2026-04-26 09:12 | 49.71778 | 20.98865 | 35065 ft | 535 kts | 184° |
| 2026-04-26 09:12 | 49.64337 | 20.99284 | 35058 ft | 534 kts | 184° |
| 2026-04-26 09:13 | 49.56905 | 20.99701 | 35055 ft | 533 kts | 184° |
| 2026-04-26 09:13 | 49.49551 | 21.00112 | 35056 ft | 531 kts | 184° |
| 2026-04-26 09:14 | 49.42156 | 21.00525 | 35053 ft | 530 kts | 184° |
| 2026-04-26 09:14 | 49.34832 | 21.01029 | 35053 ft | 531 kts | 180° |
| 2026-04-26 09:15 | 49.27505 | 21.03068 | 35052 ft | 538 kts | 170° |
| 2026-04-26 09:15 | 49.20247 | 21.05921 | 35058 ft | 537 kts | 171° |
| 2026-04-26 09:16 | 49.13078 | 21.08859 | 35065 ft | 539 kts | 165° |
| 2026-04-26 09:16 | 49.06180 | 21.13552 | 35047 ft | 544 kts | 153° |
| 2026-04-26 09:17 | 48.99595 | 21.19281 | 35068 ft | 544 kts | 153° |
| 2026-04-26 09:17 | 48.93054 | 21.24931 | 35065 ft | 543 kts | 153° |
| 2026-04-26 09:18 | 48.86446 | 21.30542 | 35070 ft | 543 kts | 154° |
| 2026-04-26 09:18 | 48.79830 | 21.36111 | 35075 ft | 543 kts | 154° |
| 2026-04-26 09:19 | 48.73196 | 21.41681 | 35068 ft | 543 kts | 154° |
| 2026-04-26 09:19 | 48.66621 | 21.47190 | 35073 ft | 543 kts | 154° |
| 2026-04-26 09:20 | 48.60005 | 21.52719 | 35070 ft | 543 kts | 154° |
| 2026-04-26 09:20 | 48.53375 | 21.58244 | 35064 ft | 543 kts | 154° |
| 2026-04-26 09:21 | 48.46749 | 21.63747 | 35061 ft | 544 kts | 154° |
| 2026-04-26 09:21 | 48.40149 | 21.69213 | 35061 ft | 544 kts | 154° |
| 2026-04-26 09:22 | 48.33503 | 21.74702 | 35054 ft | 544 kts | 154° |
| 2026-04-26 09:22 | 48.26884 | 21.80153 | 35050 ft | 544 kts | 154° |
| 2026-04-26 09:23 | 48.20534 | 21.86430 | 35045 ft | 547 kts | 143° |
| 2026-04-26 09:23 | 48.14944 | 21.94084 | 35051 ft | 548 kts | 136° |
| 2026-04-26 09:24 | 48.09449 | 22.02029 | 35047 ft | 548 kts | 137° |
| 2026-04-26 09:24 | 48.03918 | 22.09893 | 35044 ft | 547 kts | 137° |
| 2026-04-26 09:25 | 47.98407 | 22.17639 | 35035 ft | 547 kts | 137° |
| 2026-04-26 09:25 | 47.92848 | 22.25427 | 35032 ft | 546 kts | 137° |
| 2026-04-26 09:26 | 47.87332 | 22.33142 | 35031 ft | 545 kts | 138° |
| 2026-04-26 09:26 | 47.81793 | 22.40868 | 35025 ft | 545 kts | 138° |
| 2026-04-26 09:27 | 47.76252 | 22.48494 | 35022 ft | 544 kts | 139° |
| 2026-04-26 09:27 | 47.70606 | 22.55977 | 35020 ft | 544 kts | 140° |
| 2026-04-26 09:28 | 47.64927 | 22.63440 | 35023 ft | 544 kts | 140° |
| 2026-04-26 09:28 | 47.59300 | 22.70854 | 35019 ft | 544 kts | 139° |
| 2026-04-26 09:29 | 47.53645 | 22.78308 | 35018 ft | 544 kts | 139° |
| 2026-04-26 09:29 | 47.48003 | 22.85729 | 35011 ft | 544 kts | 140° |
| 2026-04-26 09:30 | 47.42332 | 22.93161 | 35004 ft | 544 kts | 140° |
| 2026-04-26 09:30 | 47.36663 | 23.00566 | 34995 ft | 542 kts | 140° |
| 2026-04-26 09:31 | 47.31045 | 23.07883 | 34990 ft | 541 kts | 140° |
| 2026-04-26 09:31 | 47.25398 | 23.15216 | 34984 ft | 539 kts | 140° |
| 2026-04-26 09:32 | 47.19766 | 23.22507 | 34972 ft | 537 kts | 140° |
| 2026-04-26 09:32 | 47.14207 | 23.29685 | 34966 ft | 534 kts | 140° |
| 2026-04-26 09:33 | 47.08633 | 23.36860 | 34976 ft | 531 kts | 140° |
| 2026-04-26 09:33 | 47.03084 | 23.43981 | 34954 ft | 528 kts | 140° |
| 2026-04-26 09:34 | 46.97556 | 23.51057 | 34934 ft | 526 kts | 141° |
| 2026-04-26 09:34 | 46.92079 | 23.58046 | 34919 ft | 524 kts | 141° |
| 2026-04-26 09:35 | 46.86570 | 23.65057 | 34913 ft | 523 kts | 141° |
| 2026-04-26 09:35 | 46.81104 | 23.71994 | 34911 ft | 523 kts | 141° |
| 2026-04-26 09:36 | 46.75589 | 23.78973 | 34914 ft | 523 kts | 141° |
| 2026-04-26 09:36 | 46.70109 | 23.85890 | 34917 ft | 524 kts | 141° |
| 2026-04-26 09:37 | 46.65507 | 23.91685 | 34920 ft | 525 kts | 141° |
| 2026-04-26 09:37 | 46.59968 | 23.98634 | 34924 ft | 525 kts | 141° |
| 2026-04-26 09:38 | 46.54315 | 24.05400 | 34910 ft | 526 kts | 143° |
| 2026-04-26 09:38 | 46.48603 | 24.12063 | 34900 ft | 526 kts | 143° |
| 2026-04-26 09:39 | 46.42938 | 24.18683 | 34893 ft | 525 kts | 142° |
| 2026-04-26 09:39 | 46.37254 | 24.25350 | 34889 ft | 524 kts | 142° |
| 2026-04-26 09:40 | 46.31580 | 24.32000 | 34888 ft | 523 kts | 142° |
| 2026-04-26 09:40 | 46.25912 | 24.38623 | 34889 ft | 522 kts | 142° |
| 2026-04-26 09:41 | 46.20290 | 24.45172 | 34893 ft | 521 kts | 142° |
| 2026-04-26 09:41 | 46.14641 | 24.51732 | 34901 ft | 520 kts | 142° |
| 2026-04-26 09:42 | 46.08990 | 24.58278 | 34904 ft | 519 kts | 142° |
| 2026-04-26 09:42 | 46.03399 | 24.64738 | 34898 ft | 518 kts | 142° |
| 2026-04-26 09:43 | 45.97769 | 24.71226 | 34904 ft | 517 kts | 142° |
| 2026-04-26 09:43 | 45.92138 | 24.77695 | 34903 ft | 516 kts | 142° |
| 2026-04-26 09:44 | 45.86548 | 24.84102 | 34903 ft | 516 kts | 142° |
| 2026-04-26 09:44 | 45.80929 | 24.90524 | 34904 ft | 515 kts | 142° |
| 2026-04-26 09:45 | 45.75352 | 24.96882 | 34906 ft | 515 kts | 142° |
| 2026-04-26 09:45 | 45.69736 | 25.03267 | 34907 ft | 514 kts | 142° |
| 2026-04-26 09:46 | 45.64161 | 25.09589 | 34903 ft | 513 kts | 142° |
| 2026-04-26 09:46 | 45.58546 | 25.15939 | 34888 ft | 512 kts | 142° |
| 2026-04-26 09:47 | 45.52961 | 25.22240 | 34902 ft | 511 kts | 142° |
| 2026-04-26 09:47 | 45.47407 | 25.28490 | 34897 ft | 510 kts | 142° |
| 2026-04-26 09:48 | 45.41831 | 25.34747 | 34898 ft | 509 kts | 142° |
| 2026-04-26 09:48 | 45.36251 | 25.40993 | 34894 ft | 509 kts | 142° |
| 2026-04-26 09:49 | 45.30686 | 25.47206 | 34909 ft | 508 kts | 142° |
| 2026-04-26 09:49 | 45.25155 | 25.53367 | 34905 ft | 508 kts | 142° |
| 2026-04-26 09:50 | 45.19582 | 25.59558 | 34895 ft | 508 kts | 143° |
| 2026-04-26 09:50 | 45.14041 | 25.65699 | 34880 ft | 508 kts | 143° |
| 2026-04-26 09:51 | 45.08454 | 25.71877 | 34880 ft | 509 kts | 143° |
| 2026-04-26 09:51 | 45.02916 | 25.78058 | 34897 ft | 509 kts | 142° |
| 2026-04-26 09:52 | 44.97362 | 25.84336 | 34876 ft | 510 kts | 142° |
| 2026-04-26 09:52 | 44.89028 | 25.93721 | 34894 ft | 511 kts | 142° |
| 2026-04-26 09:53 | 44.83500 | 25.99912 | 34896 ft | 511 kts | 143° |
| 2026-04-26 09:53 | 44.77900 | 26.06164 | 34889 ft | 511 kts | 143° |
| 2026-04-26 09:54 | 44.72315 | 26.12383 | 34880 ft | 511 kts | 143° |
| 2026-04-26 09:54 | 44.66760 | 26.18556 | 34888 ft | 510 kts | 143° |
| 2026-04-26 09:55 | 44.61191 | 26.24728 | 34882 ft | 509 kts | 143° |
| 2026-04-26 09:55 | 44.55659 | 26.30844 | 34880 ft | 508 kts | 144° |
| 2026-04-26 09:56 | 44.50092 | 26.36983 | 34888 ft | 508 kts | 144° |
| 2026-04-26 09:56 | 44.44567 | 26.43059 | 34891 ft | 507 kts | 144° |
| 2026-04-26 09:57 | 44.39013 | 26.49154 | 34897 ft | 507 kts | 144° |
| 2026-04-26 09:57 | 44.33454 | 26.55239 | 34909 ft | 507 kts | 144° |
| 2026-04-26 09:58 | 44.27882 | 26.61323 | 34911 ft | 507 kts | 144° |
| 2026-04-26 09:58 | 44.22349 | 26.67350 | 34910 ft | 508 kts | 144° |
| 2026-04-26 09:59 | 44.16757 | 26.73426 | 34912 ft | 508 kts | 145° |
| 2026-04-26 09:59 | 44.11173 | 26.79482 | 34912 ft | 509 kts | 145° |
| 2026-04-26 10:00 | 44.05547 | 26.85498 | 34909 ft | 509 kts | 146° |
| 2026-04-26 10:00 | 43.99842 | 26.91235 | 34909 ft | 509 kts | 147° |
| 2026-04-26 10:01 | 43.94069 | 26.96955 | 34918 ft | 509 kts | 147° |
| 2026-04-26 10:01 | 43.88309 | 27.02694 | 34921 ft | 509 kts | 147° |
| 2026-04-26 10:02 | 43.82591 | 27.08411 | 34917 ft | 509 kts | 147° |
| 2026-04-26 10:02 | 43.76823 | 27.14174 | 34923 ft | 509 kts | 147° |
| 2026-04-26 10:03 | 43.71093 | 27.19883 | 34918 ft | 508 kts | 147° |
| 2026-04-26 10:03 | 43.65346 | 27.25593 | 34920 ft | 508 kts | 147° |
| 2026-04-26 10:04 | 43.59627 | 27.31259 | 34924 ft | 508 kts | 147° |
| 2026-04-26 10:04 | 43.53876 | 27.36944 | 34921 ft | 507 kts | 147° |
| 2026-04-26 10:05 | 43.48169 | 27.42571 | 34924 ft | 507 kts | 147° |
| 2026-04-26 10:05 | 43.42432 | 27.48215 | 34922 ft | 507 kts | 147° |
| 2026-04-26 10:06 | 43.36679 | 27.53863 | 34917 ft | 507 kts | 147° |
| 2026-04-26 10:06 | 43.30930 | 27.59492 | 34914 ft | 507 kts | 147° |
| 2026-04-26 10:07 | 43.25201 | 27.65087 | 34915 ft | 507 kts | 147° |
| 2026-04-26 10:07 | 43.19440 | 27.70703 | 34910 ft | 507 kts | 147° |
| 2026-04-26 10:08 | 43.13675 | 27.76308 | 34916 ft | 507 kts | 147° |
| 2026-04-26 10:08 | 43.07917 | 27.81892 | 34918 ft | 506 kts | 147° |
| 2026-04-26 10:09 | 43.02198 | 27.87428 | 34929 ft | 506 kts | 146° |
| 2026-04-26 10:09 | 42.96444 | 27.92983 | 34935 ft | 505 kts | 146° |
| 2026-04-26 10:10 | 42.90714 | 27.98502 | 34953 ft | 503 kts | 146° |
| 2026-04-26 10:10 | 42.85020 | 28.03974 | 34960 ft | 503 kts | 146° |
| 2026-04-26 10:11 | 42.79284 | 28.09473 | 34958 ft | 502 kts | 146° |
| 2026-04-26 10:11 | 42.73589 | 28.14920 | 34966 ft | 502 kts | 146° |
| 2026-04-26 10:12 | 42.67864 | 28.20384 | 34966 ft | 502 kts | 146° |
| 2026-04-26 10:12 | 42.62131 | 28.25843 | 34969 ft | 502 kts | 146° |
| 2026-04-26 10:13 | 42.56405 | 28.31283 | 34973 ft | 502 kts | 146° |
| 2026-04-26 10:13 | 42.50711 | 28.36680 | 34976 ft | 502 kts | 146° |
| 2026-04-26 10:14 | 42.44968 | 28.42111 | 34979 ft | 502 kts | 146° |
| 2026-04-26 10:14 | 42.39272 | 28.47486 | 34981 ft | 501 kts | 146° |
| 2026-04-26 10:15 | 42.33537 | 28.52885 | 34984 ft | 501 kts | 146° |
| 2026-04-26 10:15 | 42.27852 | 28.58226 | 34982 ft | 500 kts | 146° |
| 2026-04-26 10:16 | 42.22126 | 28.63593 | 34989 ft | 500 kts | 146° |
| 2026-04-26 10:16 | 42.16412 | 28.68937 | 34986 ft | 499 kts | 146° |
| 2026-04-26 10:17 | 42.10695 | 28.74274 | 34987 ft | 499 kts | 146° |
| 2026-04-26 10:17 | 42.05114 | 28.79843 | 34992 ft | 499 kts | 141° |
| 2026-04-26 10:18 | 41.99727 | 28.85718 | 34992 ft | 498 kts | 141° |
| 2026-04-26 10:18 | 41.94374 | 28.91560 | 34990 ft | 498 kts | 141° |
| 2026-04-26 10:19 | 41.88970 | 28.97411 | 34992 ft | 498 kts | 141° |
| 2026-04-26 10:19 | 41.83561 | 29.03235 | 34993 ft | 498 kts | 141° |
| 2026-04-26 10:20 | 41.79072 | 29.08057 | 34994 ft | 497 kts | 141° |
| 2026-04-26 10:20 | 41.72779 | 29.14804 | 34995 ft | 497 kts | 141° |
| 2026-04-26 10:21 | 41.67374 | 29.20586 | 34998 ft | 497 kts | 141° |
| 2026-04-26 10:21 | 41.61996 | 29.26328 | 34999 ft | 497 kts | 141° |
| 2026-04-26 10:22 | 41.56591 | 29.32085 | 34999 ft | 496 kts | 141° |
| 2026-04-26 10:22 | 41.51194 | 29.37822 | 34997 ft | 495 kts | 141° |
| 2026-04-26 10:23 | 41.46706 | 29.42582 | 34997 ft | 495 kts | 141° |
| 2026-04-26 10:23 | 41.41303 | 29.48301 | 34999 ft | 494 kts | 141° |
| 2026-04-26 10:24 | 41.35907 | 29.54002 | 34996 ft | 494 kts | 141° |
| 2026-04-26 10:24 | 41.30565 | 29.59635 | 35000 ft | 493 kts | 141° |
| 2026-04-26 10:25 | 41.25086 | 29.65127 | 35000 ft | 492 kts | 147° |
| 2026-04-26 10:25 | 41.19031 | 29.69358 | 35002 ft | 491 kts | 156° |
| 2026-04-26 10:26 | 41.12803 | 29.73044 | 35008 ft | 491 kts | 156° |
| 2026-04-26 10:26 | 41.06567 | 29.76785 | 35007 ft | 492 kts | 155° |
| 2026-04-26 10:27 | 41.00362 | 29.80551 | 35004 ft | 492 kts | 155° |
| 2026-04-26 10:27 | 40.94132 | 29.84327 | 35005 ft | 491 kts | 155° |
| 2026-04-26 10:28 | 40.87939 | 29.88071 | 34998 ft | 491 kts | 155° |
| 2026-04-26 10:28 | 40.81721 | 29.91836 | 35004 ft | 491 kts | 155° |
| 2026-04-26 10:29 | 40.75507 | 29.95597 | 34993 ft | 491 kts | 155° |
| 2026-04-26 10:29 | 40.69284 | 29.99354 | 34997 ft | 490 kts | 155° |
| 2026-04-26 10:30 | 40.63110 | 30.03073 | 34994 ft | 491 kts | 155° |
| 2026-04-26 10:30 | 40.56885 | 30.06814 | 34994 ft | 490 kts | 155° |
| 2026-04-26 10:31 | 40.50710 | 30.10518 | 35003 ft | 490 kts | 155° |
| 2026-04-26 10:31 | 40.44504 | 30.14233 | 35006 ft | 489 kts | 155° |
| 2026-04-26 10:32 | 40.38292 | 30.17945 | 35007 ft | 489 kts | 155° |
| 2026-04-26 10:32 | 40.32125 | 30.21617 | 35013 ft | 489 kts | 155° |
| 2026-04-26 10:33 | 40.25913 | 30.25304 | 35005 ft | 489 kts | 155° |
| 2026-04-26 10:33 | 40.19717 | 30.28978 | 35008 ft | 488 kts | 155° |
| 2026-04-26 10:34 | 40.13528 | 30.32640 | 35004 ft | 488 kts | 155° |
| 2026-04-26 10:34 | 40.07376 | 30.36274 | 35014 ft | 487 kts | 155° |
| 2026-04-26 10:35 | 40.01198 | 30.39915 | 35021 ft | 487 kts | 155° |
| 2026-04-26 10:35 | 39.95023 | 30.43549 | 35024 ft | 487 kts | 155° |
| 2026-04-26 10:36 | 39.88843 | 30.47177 | 35015 ft | 486 kts | 155° |
| 2026-04-26 10:36 | 39.82702 | 30.50776 | 35028 ft | 486 kts | 155° |
| 2026-04-26 10:37 | 39.76520 | 30.54391 | 35018 ft | 486 kts | 155° |
| 2026-04-26 10:37 | 39.70353 | 30.57991 | 35023 ft | 485 kts | 155° |
| 2026-04-26 10:38 | 39.64188 | 30.61583 | 35020 ft | 485 kts | 155° |
| 2026-04-26 10:38 | 39.58073 | 30.65139 | 35025 ft | 484 kts | 155° |
| 2026-04-26 10:39 | 39.51915 | 30.68743 | 35021 ft | 484 kts | 155° |
| 2026-04-26 10:39 | 39.45814 | 30.72333 | 35031 ft | 484 kts | 155° |
| 2026-04-26 10:40 | 39.39675 | 30.75937 | 35024 ft | 484 kts | 156° |
| 2026-04-26 10:40 | 39.33523 | 30.79537 | 35031 ft | 484 kts | 156° |
| 2026-04-26 10:41 | 39.27381 | 30.83122 | 35031 ft | 484 kts | 156° |
| 2026-04-26 10:41 | 39.21240 | 30.86702 | 35031 ft | 484 kts | 157° |
| 2026-04-26 10:42 | 39.15136 | 30.90252 | 35035 ft | 484 kts | 157° |
| 2026-04-26 10:42 | 39.08987 | 30.93823 | 35030 ft | 483 kts | 157° |
| 2026-04-26 10:43 | 39.02847 | 30.97382 | 35037 ft | 483 kts | 157° |
| 2026-04-26 10:43 | 38.96988 | 31.01474 | 35033 ft | 485 kts | 144° |
| 2026-04-26 10:44 | 38.92187 | 31.07569 | 35031 ft | 489 kts | 128° |
| 2026-04-26 10:44 | 38.88201 | 31.14653 | 35035 ft | 489 kts | 127° |
| 2026-04-26 10:45 | 38.84228 | 31.21763 | 35035 ft | 490 kts | 128° |
| 2026-04-26 10:45 | 38.80198 | 31.28842 | 35039 ft | 491 kts | 128° |
| 2026-04-26 10:46 | 38.76140 | 31.35895 | 35038 ft | 491 kts | 128° |
| 2026-04-26 10:46 | 38.72094 | 31.42908 | 35040 ft | 492 kts | 128° |
| 2026-04-26 10:47 | 38.68015 | 31.49967 | 35043 ft | 492 kts | 128° |
| 2026-04-26 10:47 | 38.63955 | 31.56983 | 35033 ft | 492 kts | 129° |
| 2026-04-26 10:48 | 38.59875 | 31.64017 | 35034 ft | 492 kts | 129° |
| 2026-04-26 10:48 | 38.55814 | 31.71006 | 35028 ft | 492 kts | 129° |
| 2026-04-26 10:49 | 38.51728 | 31.78021 | 35040 ft | 491 kts | 129° |
| 2026-04-26 10:49 | 38.47631 | 31.85022 | 35038 ft | 492 kts | 129° |
| 2026-04-26 10:50 | 38.44214 | 31.90833 | 35034 ft | 492 kts | 129° |
| 2026-04-26 10:50 | 38.39415 | 31.98985 | 35040 ft | 492 kts | 129° |
| 2026-04-26 10:51 | 38.33256 | 32.09424 | 35039 ft | 492 kts | 129° |
| 2026-04-26 10:52 | 38.29134 | 32.16392 | 35044 ft | 492 kts | 129° |
| 2026-04-26 10:52 | 38.25032 | 32.23312 | 35047 ft | 493 kts | 129° |
| 2026-04-26 10:53 | 38.20896 | 32.30274 | 35050 ft | 493 kts | 129° |
| 2026-04-26 10:53 | 38.16739 | 32.37256 | 35046 ft | 493 kts | 129° |
| 2026-04-26 10:54 | 38.10541 | 32.47641 | 35045 ft | 493 kts | 129° |
| 2026-04-26 10:54 | 38.06385 | 32.54586 | 35043 ft | 492 kts | 129° |
| 2026-04-26 10:55 | 38.02258 | 32.61465 | 35050 ft | 492 kts | 130° |
| 2026-04-26 10:55 | 37.98782 | 32.67251 | 35052 ft | 492 kts | 130° |
| 2026-04-26 10:56 | 37.93961 | 32.75258 | 35044 ft | 491 kts | 130° |
| 2026-04-26 10:56 | 37.89804 | 32.82144 | 35043 ft | 491 kts | 130° |
| 2026-04-26 10:57 | 37.85677 | 32.88968 | 35032 ft | 491 kts | 130° |
| 2026-04-26 10:57 | 37.81524 | 32.95822 | 35023 ft | 490 kts | 130° |
| 2026-04-26 10:58 | 37.77362 | 33.02678 | 35030 ft | 490 kts | 130° |
| 2026-04-26 10:58 | 37.73204 | 33.09513 | 35007 ft | 490 kts | 130° |
| 2026-04-26 10:59 | 37.68480 | 33.15453 | 35021 ft | 478 kts | 152° |
| 2026-04-26 10:59 | 37.65492 | 33.17213 | 35012 ft | 474 kts | 164° |
| 2026-04-26 10:59 | 37.62285 | 33.18080 | 35009 ft | 466 kts | 176° |
| 2026-04-26 11:00 | 37.55814 | 33.18908 | 35014 ft | 468 kts | 176° |
| 2026-04-26 11:00 | 37.49356 | 33.19808 | 35003 ft | 470 kts | 175° |
| 2026-04-26 11:01 | 37.42850 | 33.20772 | 35004 ft | 471 kts | 175° |
| 2026-04-26 11:01 | 37.36375 | 33.21747 | 34988 ft | 470 kts | 175° |
| 2026-04-26 11:02 | 37.29873 | 33.22723 | 35001 ft | 470 kts | 175° |
| 2026-04-26 11:02 | 37.23381 | 33.23694 | 35002 ft | 469 kts | 175° |
| 2026-04-26 11:03 | 37.16897 | 33.24660 | 34997 ft | 468 kts | 175° |
| 2026-04-26 11:03 | 37.10480 | 33.25616 | 34999 ft | 467 kts | 175° |
| 2026-04-26 11:04 | 37.04027 | 33.26575 | 35001 ft | 466 kts | 176° |
| 2026-04-26 11:04 | 36.97593 | 33.27529 | 35003 ft | 465 kts | 176° |
| 2026-04-26 11:05 | 36.91165 | 33.28492 | 35002 ft | 465 kts | 174° |
| 2026-04-26 11:05 | 36.84906 | 33.30708 | 35001 ft | 471 kts | 160° |
| 2026-04-26 11:06 | 36.80041 | 33.33861 | 34999 ft | 475 kts | 151° |
| 2026-04-26 11:06 | 36.73508 | 33.38997 | 34993 ft | 477 kts | 151° |
| 2026-04-26 11:07 | 36.67888 | 33.43403 | 34984 ft | 477 kts | 151° |
| 2026-04-26 11:07 | 36.62266 | 33.47747 | 34987 ft | 477 kts | 152° |
| 2026-04-26 11:08 | 36.56605 | 33.52092 | 34982 ft | 477 kts | 152° |
| 2026-04-26 11:08 | 36.51899 | 33.55699 | 34973 ft | 477 kts | 152° |
| 2026-04-26 11:09 | 36.46247 | 33.60027 | 34976 ft | 477 kts | 152° |
| 2026-04-26 11:09 | 36.39660 | 33.65061 | 34972 ft | 477 kts | 152° |
| 2026-04-26 11:10 | 36.34966 | 33.68644 | 34957 ft | 476 kts | 152° |
| 2026-04-26 11:10 | 36.29322 | 33.72948 | 34958 ft | 475 kts | 152° |
| 2026-04-26 11:11 | 36.23683 | 33.77238 | 34959 ft | 475 kts | 152° |
| 2026-04-26 11:11 | 36.18046 | 33.81532 | 34948 ft | 475 kts | 152° |
| 2026-04-26 11:12 | 36.12445 | 33.85795 | 34952 ft | 475 kts | 152° |
| 2026-04-26 11:12 | 36.06808 | 33.90079 | 34942 ft | 474 kts | 152° |
| 2026-04-26 11:13 | 36.01169 | 33.94356 | 34942 ft | 474 kts | 152° |
| 2026-04-26 11:13 | 35.95578 | 33.98591 | 34940 ft | 474 kts | 152° |
| 2026-04-26 11:14 | 35.89947 | 34.02837 | 34940 ft | 474 kts | 153° |
| 2026-04-26 11:14 | 35.84277 | 34.07015 | 34941 ft | 474 kts | 153° |
| 2026-04-26 11:15 | 35.78603 | 34.11162 | 34939 ft | 474 kts | 153° |
| 2026-04-26 11:15 | 35.72956 | 34.15293 | 34940 ft | 474 kts | 153° |
| 2026-04-26 11:16 | 35.67289 | 34.19442 | 34946 ft | 474 kts | 153° |
| 2026-04-26 11:16 | 35.61608 | 34.23595 | 35000 ft | 475 kts | 153° |
| 2026-04-26 11:17 | 35.55897 | 34.27761 | 34947 ft | 481 kts | 153° |
| 2026-04-26 11:17 | 35.50108 | 34.31980 | 34945 ft | 485 kts | 153° |
| 2026-04-26 11:18 | 35.44283 | 34.36218 | 34935 ft | 487 kts | 153° |
| 2026-04-26 11:18 | 35.38438 | 34.40464 | 34935 ft | 488 kts | 153° |
| 2026-04-26 11:19 | 35.32636 | 34.44671 | 34934 ft | 487 kts | 153° |
| 2026-04-26 11:19 | 35.26810 | 34.48888 | 34932 ft | 485 kts | 153° |
| 2026-04-26 11:20 | 35.21980 | 34.52378 | 34932 ft | 483 kts | 153° |
| 2026-04-26 11:20 | 35.15244 | 34.57237 | 34932 ft | 482 kts | 154° |
| 2026-04-26 11:21 | 35.09472 | 34.61394 | 34936 ft | 481 kts | 154° |
| 2026-04-26 11:21 | 35.03695 | 34.65546 | 34935 ft | 480 kts | 154° |
| 2026-04-26 11:22 | 34.97959 | 34.69662 | 34935 ft | 480 kts | 154° |
| 2026-04-26 11:22 | 34.92190 | 34.73796 | 34939 ft | 480 kts | 154° |
| 2026-04-26 11:23 | 34.86445 | 34.77905 | 34933 ft | 481 kts | 154° |
| 2026-04-26 11:23 | 34.80665 | 34.82033 | 34937 ft | 481 kts | 154° |
| 2026-04-26 11:24 | 34.74877 | 34.86161 | 34933 ft | 481 kts | 154° |
| 2026-04-26 11:24 | 34.69118 | 34.90261 | 34939 ft | 482 kts | 154° |
| 2026-04-26 11:25 | 34.63319 | 34.94382 | 34933 ft | 482 kts | 155° |
| 2026-04-26 11:25 | 34.57521 | 34.98498 | 34937 ft | 482 kts | 155° |
| 2026-04-26 11:26 | 34.51793 | 35.02652 | 34924 ft | 485 kts | 149° |
| 2026-04-26 11:26 | 34.49274 | 35.05433 | 34951 ft | 495 kts | 136° |
| 2026-04-26 11:26 | 34.47250 | 35.08857 | 34945 ft | 504 kts | 124° |
| 2026-04-26 11:27 | 34.45835 | 35.12781 | 34952 ft | 511 kts | 113° |
| 2026-04-26 11:27 | 34.44739 | 35.16883 | 34954 ft | 513 kts | 112° |
| 2026-04-26 11:27 | 34.42606 | 35.25110 | 34947 ft | 515 kts | 112° |
| 2026-04-26 11:28 | 34.40372 | 35.33374 | 34949 ft | 516 kts | 113° |
| 2026-04-26 11:28 | 34.38073 | 35.41610 | 34953 ft | 517 kts | 113° |
| 2026-04-26 11:29 | 34.35758 | 35.49861 | 34955 ft | 517 kts | 113° |
| 2026-04-26 11:29 | 34.33453 | 35.58084 | 34959 ft | 517 kts | 114° |
| 2026-04-26 11:30 | 34.31530 | 35.64944 | 34966 ft | 518 kts | 112° |
| 2026-04-26 11:30 | 34.29773 | 35.74988 | 34976 ft | 526 kts | 99° |
| 2026-04-26 11:31 | 34.29396 | 35.83815 | 34979 ft | 529 kts | 96° |
| 2026-04-26 11:31 | 34.29056 | 35.92696 | 34991 ft | 528 kts | 97° |
| 2026-04-26 11:32 | 34.28636 | 36.01585 | 34989 ft | 529 kts | 97° |
| 2026-04-26 11:32 | 34.28308 | 36.10488 | 34984 ft | 529 kts | 96° |
| 2026-04-26 11:33 | 34.28025 | 36.19370 | 34982 ft | 527 kts | 96° |
| 2026-04-26 11:33 | 34.27724 | 36.28174 | 34976 ft | 526 kts | 96° |
| 2026-04-26 11:34 | 34.27401 | 36.37003 | 34983 ft | 524 kts | 96° |
| 2026-04-26 11:34 | 34.27076 | 36.45742 | 34989 ft | 523 kts | 96° |
| 2026-04-26 11:35 | 34.26743 | 36.54545 | 34969 ft | 523 kts | 96° |
| 2026-04-26 11:35 | 34.26428 | 36.61846 | 34973 ft | 522 kts | 98° |
| 2026-04-26 11:36 | 34.25628 | 36.72056 | 34969 ft | 522 kts | 99° |
| 2026-04-26 11:36 | 34.24898 | 36.80750 | 34969 ft | 523 kts | 99° |
| 2026-04-26 11:37 | 34.24208 | 36.89519 | 34969 ft | 524 kts | 99° |
| 2026-04-26 11:37 | 34.23529 | 36.98314 | 34968 ft | 525 kts | 99° |
| 2026-04-26 11:38 | 34.22842 | 37.07078 | 34963 ft | 526 kts | 99° |
| 2026-04-26 11:38 | 34.22141 | 37.15914 | 34960 ft | 528 kts | 99° |
| 2026-04-26 11:39 | 34.21567 | 37.20257 | 34941 ft | 519 kts | 111° |
| 2026-04-26 11:39 | 34.20114 | 37.24177 | 34955 ft | 506 kts | 129° |
| 2026-04-26 11:39 | 34.17959 | 37.27429 | 34962 ft | 498 kts | 141° |
| 2026-04-26 11:39 | 34.15313 | 37.30105 | 34954 ft | 491 kts | 154° |
| 2026-04-26 11:40 | 34.09263 | 37.33714 | 34950 ft | 486 kts | 161° |
| 2026-04-26 11:40 | 34.03123 | 37.37257 | 34942 ft | 490 kts | 161° |
| 2026-04-26 11:42 | 33.79075 | 37.51553 | 34935 ft | 483 kts | 161° |
| 2026-04-26 11:43 | 33.73043 | 37.55127 | 34925 ft | 483 kts | 161° |
| 2026-04-26 11:43 | 33.66999 | 37.58704 | 34925 ft | 484 kts | 161° |
| 2026-04-26 11:44 | 33.60950 | 37.62278 | 34928 ft | 484 kts | 161° |
| 2026-04-26 11:44 | 33.54939 | 37.65820 | 34920 ft | 483 kts | 162° |
| 2026-04-26 11:45 | 33.48878 | 37.69303 | 34915 ft | 482 kts | 162° |
| 2026-04-26 11:45 | 33.42811 | 37.72777 | 34918 ft | 482 kts | 162° |
| 2026-04-26 11:46 | 33.36754 | 37.76238 | 34914 ft | 482 kts | 162° |
| 2026-04-26 11:46 | 33.30739 | 37.79665 | 34913 ft | 482 kts | 163° |
| 2026-04-26 11:47 | 33.24680 | 37.83114 | 34910 ft | 482 kts | 163° |
| 2026-04-26 11:47 | 33.18606 | 37.86567 | 34905 ft | 482 kts | 163° |
| 2026-04-26 11:48 | 33.12586 | 37.89985 | 34910 ft | 482 kts | 163° |
| 2026-04-26 11:48 | 33.06498 | 37.93436 | 34912 ft | 483 kts | 163° |
| 2026-04-26 11:49 | 33.00446 | 37.96862 | 34907 ft | 484 kts | 163° |
| 2026-04-26 11:49 | 32.94352 | 38.00310 | 34902 ft | 485 kts | 162° |
| 2026-04-26 11:50 | 32.88271 | 38.03918 | 34904 ft | 488 kts | 162° |
| 2026-04-26 11:50 | 32.82233 | 38.07522 | 34904 ft | 489 kts | 162° |
| 2026-04-26 11:51 | 32.76121 | 38.11147 | 34910 ft | 491 kts | 162° |
| 2026-04-26 11:51 | 32.69978 | 38.14785 | 34910 ft | 493 kts | 162° |
| 2026-04-26 11:52 | 32.64859 | 38.17815 | 34912 ft | 494 kts | 162° |
| 2026-04-26 11:52 | 32.57685 | 38.22057 | 34911 ft | 496 kts | 162° |
| 2026-04-26 11:53 | 32.51485 | 38.25716 | 34910 ft | 497 kts | 162° |
| 2026-04-26 11:54 | 32.42227 | 38.31170 | 34924 ft | 498 kts | 162° |
| 2026-04-26 11:54 | 32.37044 | 38.34217 | 34926 ft | 499 kts | 162° |
| 2026-04-26 11:55 | 32.30816 | 38.37874 | 34933 ft | 499 kts | 162° |
| 2026-04-26 11:55 | 32.23574 | 38.42120 | 34934 ft | 500 kts | 162° |
| 2026-04-26 11:56 | 32.18380 | 38.45160 | 34936 ft | 500 kts | 162° |
| 2026-04-26 11:56 | 32.12134 | 38.48810 | 34941 ft | 500 kts | 162° |
| 2026-04-26 11:57 | 32.05883 | 38.52458 | 34947 ft | 500 kts | 162° |
| 2026-04-26 11:57 | 31.99656 | 38.56088 | 34954 ft | 501 kts | 162° |
| 2026-04-26 11:58 | 31.93388 | 38.59736 | 34967 ft | 501 kts | 162° |
| 2026-04-26 11:58 | 31.87156 | 38.63362 | 34979 ft | 502 kts | 162° |
| 2026-04-26 11:59 | 31.80869 | 38.67032 | 34985 ft | 503 kts | 162° |
| 2026-04-26 11:59 | 31.74631 | 38.70671 | 34989 ft | 503 kts | 162° |
| 2026-04-26 12:00 | 31.68368 | 38.74413 | 34984 ft | 508 kts | 159° |
| 2026-04-26 12:00 | 31.62329 | 38.78723 | 34986 ft | 511 kts | 157° |
| 2026-04-26 12:01 | 31.56273 | 38.83133 | 34985 ft | 511 kts | 157° |
| 2026-04-26 12:01 | 31.50214 | 38.87502 | 34976 ft | 511 kts | 157° |
| 2026-04-26 12:02 | 31.44123 | 38.91859 | 34970 ft | 511 kts | 158° |
| 2026-04-26 12:02 | 31.38081 | 38.96168 | 34975 ft | 511 kts | 158° |
| 2026-04-26 12:03 | 31.31983 | 39.00514 | 34971 ft | 512 kts | 158° |
| 2026-04-26 12:03 | 31.25912 | 39.04835 | 34974 ft | 512 kts | 158° |
| 2026-04-26 12:04 | 31.19811 | 39.09172 | 34977 ft | 513 kts | 158° |
| 2026-04-26 12:04 | 31.13732 | 39.13486 | 34984 ft | 513 kts | 158° |
| 2026-04-26 12:05 | 31.07619 | 39.17819 | 34989 ft | 513 kts | 158° |
| 2026-04-26 12:05 | 31.01501 | 39.22149 | 34987 ft | 514 kts | 158° |
| 2026-04-26 12:06 | 30.95420 | 39.26452 | 34988 ft | 514 kts | 158° |
| 2026-04-26 12:06 | 30.89292 | 39.30785 | 34984 ft | 515 kts | 158° |
| 2026-04-26 12:07 | 30.83183 | 39.35098 | 34991 ft | 515 kts | 158° |
| 2026-04-26 12:07 | 30.77045 | 39.39425 | 34997 ft | 515 kts | 158° |
| 2026-04-26 12:08 | 30.70881 | 39.43764 | 34992 ft | 516 kts | 158° |
| 2026-04-26 12:08 | 30.64778 | 39.48054 | 34995 ft | 516 kts | 158° |
| 2026-04-26 12:09 | 30.58620 | 39.52376 | 34995 ft | 516 kts | 158° |
| 2026-04-26 12:09 | 30.52495 | 39.56669 | 34999 ft | 517 kts | 158° |
| 2026-04-26 12:10 | 30.46328 | 39.60992 | 35002 ft | 518 kts | 157° |
| 2026-04-26 12:10 | 30.40580 | 39.66253 | 35012 ft | 535 kts | 144° |
| 2026-04-26 12:11 | 30.35688 | 39.72899 | 35010 ft | 548 kts | 134° |
| 2026-04-26 12:11 | 30.31221 | 39.80014 | 35008 ft | 549 kts | 133° |
| 2026-04-26 12:12 | 30.26712 | 39.87160 | 35002 ft | 549 kts | 134° |
| 2026-04-26 12:12 | 30.22154 | 39.94244 | 35003 ft | 548 kts | 134° |
| 2026-04-26 12:13 | 30.17596 | 40.01273 | 34996 ft | 548 kts | 134° |
| 2026-04-26 12:13 | 30.13016 | 40.08335 | 34995 ft | 549 kts | 134° |
| 2026-04-26 12:14 | 30.08433 | 40.15398 | 34999 ft | 549 kts | 134° |
| 2026-04-26 12:14 | 30.03845 | 40.22459 | 34998 ft | 549 kts | 134° |
| 2026-04-26 12:15 | 29.99274 | 40.29477 | 35003 ft | 550 kts | 134° |
| 2026-04-26 12:15 | 29.94647 | 40.36552 | 34998 ft | 551 kts | 135° |
| 2026-04-26 12:16 | 29.90025 | 40.43607 | 34993 ft | 551 kts | 135° |
| 2026-04-26 12:16 | 29.85418 | 40.50633 | 34992 ft | 552 kts | 135° |
| 2026-04-26 12:17 | 29.80782 | 40.57694 | 35000 ft | 552 kts | 135° |
| 2026-04-26 12:17 | 29.76177 | 40.64794 | 34979 ft | 556 kts | 131° |
| 2026-04-26 12:18 | 29.72067 | 40.72319 | 34992 ft | 559 kts | 128° |
| 2026-04-26 12:18 | 29.68013 | 40.79992 | 34987 ft | 560 kts | 128° |
| 2026-04-26 12:19 | 29.63934 | 40.87629 | 34985 ft | 559 kts | 129° |
| 2026-04-26 12:19 | 29.59855 | 40.95181 | 34985 ft | 559 kts | 129° |
| 2026-04-26 12:20 | 29.55738 | 41.02778 | 34977 ft | 559 kts | 129° |
| 2026-04-26 12:20 | 29.51626 | 41.10360 | 34977 ft | 560 kts | 129° |
| 2026-04-26 12:21 | 29.47521 | 41.17919 | 34973 ft | 560 kts | 129° |
| 2026-04-26 12:21 | 29.43382 | 41.25527 | 34974 ft | 560 kts | 129° |
| 2026-04-26 12:22 | 29.39247 | 41.33114 | 34965 ft | 561 kts | 129° |
| 2026-04-26 12:22 | 29.35132 | 41.40651 | 34963 ft | 561 kts | 129° |
| 2026-04-26 12:23 | 29.30978 | 41.48228 | 34960 ft | 561 kts | 129° |
| 2026-04-26 12:23 | 29.26816 | 41.55807 | 34960 ft | 561 kts | 129° |
| 2026-04-26 12:24 | 29.22648 | 41.63387 | 34973 ft | 562 kts | 129° |
| 2026-04-26 12:24 | 29.18500 | 41.70919 | 34967 ft | 562 kts | 129° |
| 2026-04-26 12:25 | 29.12233 | 41.82274 | 34962 ft | 561 kts | 129° |
| 2026-04-26 12:25 | 29.08082 | 41.89779 | 34951 ft | 561 kts | 129° |
| 2026-04-26 12:26 | 29.03901 | 41.97321 | 34947 ft | 561 kts | 129° |
| 2026-04-26 12:26 | 28.99714 | 42.04864 | 34949 ft | 562 kts | 129° |
| 2026-04-26 12:27 | 28.95520 | 42.12408 | 34955 ft | 562 kts | 129° |
| 2026-04-26 12:27 | 28.91324 | 42.19947 | 34951 ft | 563 kts | 129° |
| 2026-04-26 12:28 | 28.87135 | 42.27459 | 34957 ft | 563 kts | 129° |
| 2026-04-26 12:28 | 28.82915 | 42.35013 | 34959 ft | 564 kts | 130° |
| 2026-04-26 12:29 | 28.78716 | 42.42516 | 34955 ft | 564 kts | 130° |
| 2026-04-26 12:30 | 28.72368 | 42.53834 | 34960 ft | 564 kts | 130° |
| 2026-04-26 12:30 | 28.68121 | 42.61390 | 34960 ft | 564 kts | 130° |
| 2026-04-26 12:31 | 28.61280 | 42.72061 | 34965 ft | 550 kts | 141° |
| 2026-04-26 12:31 | 28.56030 | 42.78395 | 34971 ft | 549 kts | 142° |
| 2026-04-26 12:32 | 28.50768 | 42.84725 | 34968 ft | 551 kts | 142° |
| 2026-04-26 12:33 | 28.42951 | 42.94260 | 34969 ft | 552 kts | 141° |
| 2026-04-26 12:33 | 28.37702 | 43.00683 | 34967 ft | 553 kts | 141° |
| 2026-04-26 12:34 | 28.32458 | 43.07082 | 34972 ft | 553 kts | 141° |
| 2026-04-26 12:34 | 28.27248 | 43.13424 | 34969 ft | 553 kts | 141° |
| 2026-04-26 12:35 | 28.21987 | 43.19817 | 34966 ft | 553 kts | 141° |
| 2026-04-26 12:35 | 28.16732 | 43.26193 | 34960 ft | 553 kts | 141° |
| 2026-04-26 12:36 | 28.11468 | 43.32571 | 34955 ft | 553 kts | 141° |
| 2026-04-26 12:36 | 28.06239 | 43.38899 | 34952 ft | 552 kts | 141° |
| 2026-04-26 12:37 | 28.00984 | 43.45246 | 34959 ft | 552 kts | 141° |
| 2026-04-26 12:37 | 27.95722 | 43.51593 | 34948 ft | 552 kts | 141° |
| 2026-04-26 12:38 | 27.90461 | 43.57929 | 34948 ft | 552 kts | 141° |
| 2026-04-26 12:38 | 27.85237 | 43.64213 | 34956 ft | 551 kts | 141° |
| 2026-04-26 12:39 | 27.79864 | 43.70379 | 34967 ft | 547 kts | 144° |
| 2026-04-26 12:39 | 27.74323 | 43.76294 | 34951 ft | 547 kts | 145° |
| 2026-04-26 12:40 | 27.68826 | 43.82163 | 34958 ft | 547 kts | 144° |
| 2026-04-26 12:40 | 27.63322 | 43.88116 | 34955 ft | 547 kts | 144° |
| 2026-04-26 12:41 | 27.57826 | 43.94088 | 34958 ft | 547 kts | 144° |
| 2026-04-26 12:41 | 27.52370 | 44.00004 | 34958 ft | 547 kts | 144° |
| 2026-04-26 12:42 | 27.46878 | 44.05942 | 34956 ft | 546 kts | 144° |
| 2026-04-26 12:42 | 27.42306 | 44.10878 | 34966 ft | 546 kts | 144° |
| 2026-04-26 12:43 | 27.35924 | 44.17759 | 34956 ft | 546 kts | 144° |
| 2026-04-26 12:43 | 27.31354 | 44.22679 | 34974 ft | 546 kts | 144° |
| 2026-04-26 12:44 | 27.25854 | 44.28594 | 34965 ft | 546 kts | 144° |
| 2026-04-26 12:44 | 27.20351 | 44.34503 | 34957 ft | 547 kts | 144° |
| 2026-04-26 12:45 | 27.14870 | 44.40379 | 34963 ft | 546 kts | 144° |
| 2026-04-26 12:45 | 27.09357 | 44.46271 | 34965 ft | 547 kts | 144° |
| 2026-04-26 12:46 | 27.03841 | 44.52160 | 34966 ft | 547 kts | 144° |
| 2026-04-26 12:46 | 26.98323 | 44.58047 | 34975 ft | 547 kts | 144° |
| 2026-04-26 12:47 | 26.92812 | 44.63932 | 34976 ft | 547 kts | 144° |
| 2026-04-26 12:47 | 26.87325 | 44.69791 | 34979 ft | 547 kts | 144° |
| 2026-04-26 12:48 | 26.81802 | 44.75679 | 34981 ft | 547 kts | 144° |
| 2026-04-26 12:48 | 26.76310 | 44.81525 | 34985 ft | 547 kts | 144° |
| 2026-04-26 12:49 | 26.70770 | 44.87387 | 34981 ft | 547 kts | 144° |
| 2026-04-26 12:49 | 26.65215 | 44.93250 | 34986 ft | 547 kts | 144° |
| 2026-04-26 12:50 | 26.59673 | 44.99099 | 34991 ft | 547 kts | 144° |
| 2026-04-26 12:50 | 26.54170 | 45.04900 | 34983 ft | 547 kts | 144° |
| 2026-04-26 12:51 | 26.48634 | 45.10734 | 34978 ft | 546 kts | 144° |
| 2026-04-26 12:51 | 26.43099 | 45.16560 | 34979 ft | 546 kts | 144° |
| 2026-04-26 12:52 | 26.37600 | 45.22341 | 34981 ft | 546 kts | 144° |
| 2026-04-26 12:52 | 26.32056 | 45.28161 | 34978 ft | 546 kts | 144° |
| 2026-04-26 12:53 | 26.26519 | 45.33978 | 34975 ft | 547 kts | 144° |
| 2026-04-26 12:53 | 26.21022 | 45.39772 | 34984 ft | 547 kts | 144° |
| 2026-04-26 12:54 | 26.15470 | 45.45609 | 34976 ft | 547 kts | 144° |
| 2026-04-26 12:54 | 26.09950 | 45.51378 | 34970 ft | 547 kts | 144° |
| 2026-04-26 12:55 | 26.04390 | 45.57176 | 34982 ft | 547 kts | 144° |
| 2026-04-26 12:55 | 25.98823 | 45.62980 | 34978 ft | 547 kts | 144° |
| 2026-04-26 12:56 | 25.93295 | 45.68738 | 34979 ft | 548 kts | 144° |
| 2026-04-26 12:56 | 25.87726 | 45.74532 | 34980 ft | 548 kts | 144° |
| 2026-04-26 12:57 | 25.82149 | 45.80324 | 34977 ft | 548 kts | 144° |
| 2026-04-26 12:57 | 25.76612 | 45.86071 | 34980 ft | 548 kts | 144° |
| 2026-04-26 12:58 | 25.68243 | 45.94745 | 34977 ft | 548 kts | 144° |
| 2026-04-26 12:58 | 25.62709 | 46.00472 | 34978 ft | 548 kts | 144° |
| 2026-04-26 12:59 | 25.57128 | 46.06237 | 34977 ft | 548 kts | 144° |
| 2026-04-26 12:59 | 25.51548 | 46.11995 | 34980 ft | 548 kts | 144° |
| 2026-04-26 13:00 | 25.45972 | 46.17744 | 34981 ft | 548 kts | 144° |
| 2026-04-26 13:00 | 25.40379 | 46.23503 | 34975 ft | 548 kts | 144° |
| 2026-04-26 13:01 | 25.34800 | 46.29240 | 34979 ft | 548 kts | 144° |
| 2026-04-26 13:01 | 25.29217 | 46.34974 | 34990 ft | 547 kts | 143° |
| 2026-04-26 13:02 | 25.23626 | 46.40709 | 34985 ft | 547 kts | 143° |
| 2026-04-26 13:02 | 25.18082 | 46.46388 | 34984 ft | 546 kts | 143° |
| 2026-04-26 13:03 | 25.12511 | 46.52088 | 34994 ft | 545 kts | 143° |
| 2026-04-26 13:03 | 25.06939 | 46.57782 | 34975 ft | 545 kts | 143° |
| 2026-04-26 13:04 | 25.01361 | 46.63380 | 34991 ft | 540 kts | 147° |
| 2026-04-26 13:04 | 24.95218 | 46.67990 | 34998 ft | 529 kts | 158° |
| 2026-04-26 13:05 | 24.88635 | 46.71429 | 34995 ft | 520 kts | 165° |
| 2026-04-26 13:05 | 24.81946 | 46.74493 | 34987 ft | 521 kts | 165° |
| 2026-04-26 13:06 | 24.75296 | 46.77565 | 34991 ft | 522 kts | 165° |
| 2026-04-26 13:06 | 24.68594 | 46.80702 | 34986 ft | 523 kts | 164° |
| 2026-04-26 13:07 | 24.61889 | 46.83850 | 34975 ft | 523 kts | 164° |
| 2026-04-26 13:07 | 24.55187 | 46.86991 | 34985 ft | 524 kts | 164° |
| 2026-04-26 13:08 | 24.48470 | 46.90132 | 34962 ft | 524 kts | 164° |
| 2026-04-26 13:08 | 24.41802 | 46.93245 | 34966 ft | 523 kts | 164° |
| 2026-04-26 13:09 | 24.35100 | 46.96372 | 34966 ft | 524 kts | 164° |
| 2026-04-26 13:09 | 24.28383 | 46.99502 | 34962 ft | 524 kts | 164° |
| 2026-04-26 13:10 | 24.21710 | 47.02609 | 34963 ft | 524 kts | 164° |
| 2026-04-26 13:10 | 24.15047 | 47.05887 | 34944 ft | 530 kts | 156° |
| 2026-04-26 13:11 | 24.12002 | 47.08235 | 34956 ft | 540 kts | 145° |
| 2026-04-26 13:11 | 24.09286 | 47.11138 | 34957 ft | 548 kts | 135° |
| 2026-04-26 13:11 | 24.05023 | 47.18078 | 34953 ft | 555 kts | 124° |
| 2026-04-26 13:12 | 24.01054 | 47.25330 | 34959 ft | 556 kts | 124° |
| 2026-04-26 13:12 | 23.97015 | 47.32561 | 34960 ft | 556 kts | 125° |
| 2026-04-26 13:13 | 23.92911 | 47.39732 | 34966 ft | 555 kts | 126° |
| 2026-04-26 13:13 | 23.88814 | 47.46836 | 34967 ft | 555 kts | 126° |
| 2026-04-26 13:14 | 23.84700 | 47.53973 | 34962 ft | 554 kts | 126° |
| 2026-04-26 13:14 | 23.80598 | 47.61091 | 34950 ft | 553 kts | 126° |
| 2026-04-26 13:15 | 23.76504 | 47.68189 | 34936 ft | 552 kts | 126° |
| 2026-04-26 13:15 | 23.73099 | 47.74084 | 34926 ft | 551 kts | 126° |
| 2026-04-26 13:16 | 23.68340 | 47.82308 | 34915 ft | 551 kts | 126° |
| 2026-04-26 13:16 | 23.64242 | 47.89380 | 34911 ft | 550 kts | 125° |
| 2026-04-26 13:17 | 23.58091 | 47.99978 | 34904 ft | 550 kts | 125° |
| 2026-04-26 13:18 | 23.51965 | 48.10509 | 34897 ft | 550 kts | 125° |
| 2026-04-26 13:19 | 23.45807 | 48.21076 | 34891 ft | 550 kts | 125° |
| 2026-04-26 13:19 | 23.41723 | 48.28091 | 34886 ft | 551 kts | 123° |
| 2026-04-26 13:20 | 23.38722 | 48.35790 | 34887 ft | 555 kts | 106° |
| 2026-04-26 13:20 | 23.37588 | 48.44089 | 34889 ft | 555 kts | 91° |
| 2026-04-26 13:21 | 23.37366 | 48.52478 | 34880 ft | 555 kts | 90° |
| 2026-04-26 13:21 | 23.37126 | 48.60853 | 34879 ft | 555 kts | 91° |
| 2026-04-26 13:22 | 23.36796 | 48.69268 | 34879 ft | 555 kts | 91° |
| 2026-04-26 13:22 | 23.36435 | 48.77667 | 34875 ft | 555 kts | 92° |
| 2026-04-26 13:23 | 23.36076 | 48.86066 | 34876 ft | 555 kts | 91° |
| 2026-04-26 13:23 | 23.35722 | 48.94412 | 34876 ft | 554 kts | 91° |
| 2026-04-26 13:24 | 23.35360 | 49.02820 | 34871 ft | 554 kts | 91° |
| 2026-04-26 13:24 | 23.34983 | 49.11145 | 34873 ft | 554 kts | 92° |
| 2026-04-26 13:25 | 23.34548 | 49.19521 | 34869 ft | 554 kts | 92° |
| 2026-04-26 13:25 | 23.34098 | 49.27902 | 34866 ft | 554 kts | 92° |
| 2026-04-26 13:26 | 23.33654 | 49.36243 | 34867 ft | 554 kts | 92° |
| 2026-04-26 13:26 | 23.33209 | 49.44617 | 34867 ft | 554 kts | 92° |
| 2026-04-26 13:27 | 23.32764 | 49.52937 | 34872 ft | 553 kts | 92° |
| 2026-04-26 13:27 | 23.32310 | 49.61315 | 34872 ft | 553 kts | 92° |
| 2026-04-26 13:28 | 23.31855 | 49.69632 | 34876 ft | 553 kts | 92° |
| 2026-04-26 13:28 | 23.31393 | 49.78004 | 34875 ft | 553 kts | 92° |
| 2026-04-26 13:29 | 23.30927 | 49.86358 | 34873 ft | 552 kts | 92° |
| 2026-04-26 13:29 | 23.30459 | 49.94660 | 34873 ft | 552 kts | 92° |
| 2026-04-26 13:30 | 23.30065 | 50.01601 | 34872 ft | 552 kts | 92° |
| 2026-04-26 13:30 | 23.29587 | 50.09939 | 34871 ft | 551 kts | 92° |
| 2026-04-26 13:31 | 23.29106 | 50.18270 | 34870 ft | 551 kts | 92° |
| 2026-04-26 13:31 | 23.28623 | 50.26545 | 34873 ft | 550 kts | 92° |
| 2026-04-26 13:32 | 23.28133 | 50.34867 | 34873 ft | 550 kts | 92° |
| 2026-04-26 13:32 | 23.27639 | 50.43175 | 34871 ft | 550 kts | 92° |
| 2026-04-26 13:33 | 23.27141 | 50.51482 | 34870 ft | 550 kts | 92° |
| 2026-04-26 13:33 | 23.26643 | 50.59732 | 34875 ft | 550 kts | 92° |
| 2026-04-26 13:34 | 23.26135 | 50.68053 | 34872 ft | 550 kts | 92° |
| 2026-04-26 13:34 | 23.25624 | 50.76355 | 34873 ft | 550 kts | 92° |
| 2026-04-26 13:35 | 23.25111 | 50.84624 | 34874 ft | 549 kts | 92° |
| 2026-04-26 13:35 | 23.24591 | 50.92928 | 34873 ft | 549 kts | 92° |
| 2026-04-26 13:36 | 23.24070 | 51.01180 | 34875 ft | 549 kts | 92° |
| 2026-04-26 13:36 | 23.23542 | 51.09472 | 34873 ft | 549 kts | 92° |
| 2026-04-26 13:37 | 23.23010 | 51.17774 | 34875 ft | 549 kts | 92° |
| 2026-04-26 13:37 | 23.22478 | 51.25989 | 34876 ft | 548 kts | 92° |
| 2026-04-26 13:38 | 23.21939 | 51.34262 | 34873 ft | 548 kts | 92° |
| 2026-04-26 13:38 | 23.21394 | 51.42538 | 34873 ft | 548 kts | 92° |
| 2026-04-26 13:39 | 23.20847 | 51.50803 | 34869 ft | 548 kts | 92° |
| 2026-04-26 13:39 | 23.20295 | 51.59059 | 34871 ft | 547 kts | 92° |
| 2026-04-26 13:40 | 23.19743 | 51.67262 | 34873 ft | 547 kts | 92° |
| 2026-04-26 13:40 | 23.19181 | 51.75530 | 34872 ft | 547 kts | 92° |
| 2026-04-26 13:41 | 23.18617 | 51.83778 | 34871 ft | 547 kts | 92° |
| 2026-04-26 13:41 | 23.18052 | 51.91984 | 34878 ft | 546 kts | 92° |
| 2026-04-26 13:42 | 23.17479 | 52.00238 | 34868 ft | 546 kts | 92° |
| 2026-04-26 13:42 | 23.16902 | 52.08486 | 34867 ft | 546 kts | 92° |
| 2026-04-26 13:43 | 23.16324 | 52.16678 | 34864 ft | 546 kts | 92° |
| 2026-04-26 13:43 | 23.15739 | 52.24925 | 34863 ft | 546 kts | 92° |
| 2026-04-26 13:44 | 23.15152 | 52.33158 | 34861 ft | 546 kts | 91° |
| 2026-04-26 13:44 | 23.15408 | 52.41301 | 34877 ft | 539 kts | 78° |
| 2026-04-26 13:45 | 23.17080 | 52.49198 | 34856 ft | 531 kts | 68° |
| 2026-04-26 13:45 | 23.18894 | 52.57030 | 34858 ft | 538 kts | 77° |
| 2026-04-26 13:46 | 23.19910 | 52.65067 | 34867 ft | 540 kts | 79° |
| 2026-04-26 13:46 | 23.20816 | 52.73181 | 34867 ft | 541 kts | 79° |
| 2026-04-26 13:47 | 23.21774 | 52.81298 | 34863 ft | 541 kts | 79° |
| 2026-04-26 13:47 | 23.22770 | 52.89361 | 34862 ft | 541 kts | 78° |
| 2026-04-26 13:48 | 23.23780 | 52.97466 | 34863 ft | 540 kts | 78° |
| 2026-04-26 13:48 | 23.24784 | 53.05583 | 34862 ft | 540 kts | 78° |
| 2026-04-26 13:49 | 23.25779 | 53.13696 | 34866 ft | 540 kts | 78° |
| 2026-04-26 13:49 | 23.26757 | 53.21728 | 34862 ft | 539 kts | 78° |
| 2026-04-26 13:50 | 23.27741 | 53.29830 | 34866 ft | 539 kts | 78° |
| 2026-04-26 13:50 | 23.28719 | 53.37913 | 34864 ft | 538 kts | 79° |
| 2026-04-26 13:51 | 23.29685 | 53.45940 | 34866 ft | 538 kts | 79° |
| 2026-04-26 13:51 | 23.30654 | 53.54028 | 34868 ft | 538 kts | 79° |
| 2026-04-26 13:52 | 23.31620 | 53.62119 | 34861 ft | 538 kts | 79° |
| 2026-04-26 13:52 | 23.32580 | 53.70195 | 34867 ft | 538 kts | 79° |
| 2026-04-26 13:53 | 23.33530 | 53.78235 | 34855 ft | 538 kts | 79° |
| 2026-04-26 13:53 | 23.34481 | 53.86309 | 34861 ft | 538 kts | 79° |
| 2026-04-26 13:54 | 23.35429 | 53.94396 | 34854 ft | 538 kts | 79° |
| 2026-04-26 13:54 | 23.36371 | 54.02473 | 34853 ft | 538 kts | 79° |
| 2026-04-26 13:55 | 23.37619 | 54.13221 | 34857 ft | 537 kts | 79° |
| 2026-04-26 13:56 | 23.39168 | 54.26657 | 34854 ft | 537 kts | 79° |
| 2026-04-26 13:56 | 23.40093 | 54.34733 | 34849 ft | 537 kts | 79° |
| 2026-04-26 13:57 | 23.41009 | 54.42770 | 34844 ft | 537 kts | 79° |
| 2026-04-26 13:57 | 23.41924 | 54.50823 | 34850 ft | 536 kts | 79° |
| 2026-04-26 13:58 | 23.42830 | 54.58845 | 34842 ft | 536 kts | 79° |
| 2026-04-26 13:58 | 23.43740 | 54.66937 | 34848 ft | 536 kts | 79° |
| 2026-04-26 13:59 | 23.44642 | 54.74998 | 34843 ft | 536 kts | 79° |
| 2026-04-26 13:59 | 23.45540 | 54.83060 | 34845 ft | 535 kts | 79° |
| 2026-04-26 14:00 | 23.47316 | 54.99117 | 34839 ft | 535 kts | 79° |
| 2026-04-26 14:01 | 23.48201 | 55.07171 | 34850 ft | 534 kts | 79° |
| 2026-04-26 14:01 | 23.49080 | 55.15218 | 34855 ft | 534 kts | 79° |
| 2026-04-26 14:01 | 23.49516 | 55.19226 | 34722 ft | 531 kts | 79° |
| 2026-04-26 14:02 | 23.49946 | 55.23181 | 34430 ft | 532 kts | 79° |
| 2026-04-26 14:02 | 23.50382 | 55.27199 | 34083 ft | 534 kts | 79° |
| 2026-04-26 14:02 | 23.51088 | 55.31139 | 33570 ft | 527 kts | 66° |
| 2026-04-26 14:02 | 23.52699 | 55.34700 | 33022 ft | 518 kts | 50° |
| 2026-04-26 14:03 | 23.55076 | 55.37605 | 32520 ft | 510 kts | 36° |
| 2026-04-26 14:03 | 23.57903 | 55.39907 | 32059 ft | 504 kts | 26° |
| 2026-04-26 14:03 | 23.61047 | 55.41540 | 31880 ft | 496 kts | 12° |
| 2026-04-26 14:04 | 23.67700 | 55.43397 | 31871 ft | 496 kts | 9° |
| 2026-04-26 14:04 | 23.74386 | 55.45275 | 31865 ft | 495 kts | 10° |
| 2026-04-26 14:05 | 23.81044 | 55.47256 | 31867 ft | 495 kts | 10° |
| 2026-04-26 14:05 | 23.87692 | 55.49241 | 31876 ft | 495 kts | 10° |
| 2026-04-26 14:06 | 23.94295 | 55.51203 | 31879 ft | 496 kts | 10° |
| 2026-04-26 14:06 | 24.00770 | 55.53953 | 31894 ft | 506 kts | 24° |
| 2026-04-26 14:07 | 24.06578 | 55.58460 | 31906 ft | 516 kts | 37° |
| 2026-04-26 14:07 | 24.11799 | 55.63735 | 31588 ft | 506 kts | 38° |
| 2026-04-26 14:07 | 24.14353 | 55.66348 | 30941 ft | 501 kts | 38° |
| 2026-04-26 14:08 | 24.16926 | 55.68946 | 29995 ft | 505 kts | 39° |
| 2026-04-26 14:08 | 24.19531 | 55.71547 | 28990 ft | 506 kts | 39° |
| 2026-04-26 14:08 | 24.22143 | 55.74141 | 28107 ft | 506 kts | 39° |
| 2026-04-26 14:08 | 24.24751 | 55.76726 | 27334 ft | 503 kts | 39° |
| 2026-04-26 14:09 | 24.27331 | 55.79285 | 26707 ft | 498 kts | 39° |
| 2026-04-26 14:09 | 24.29889 | 55.81826 | 26079 ft | 492 kts | 39° |
| 2026-04-26 14:09 | 24.32412 | 55.84334 | 25468 ft | 488 kts | 40° |
| 2026-04-26 14:09 | 24.34920 | 55.86829 | 24834 ft | 485 kts | 40° |
| 2026-04-26 14:10 | 24.37384 | 55.89281 | 24214 ft | 482 kts | 40° |
| 2026-04-26 14:10 | 24.39857 | 55.91747 | 23607 ft | 479 kts | 40° |
| 2026-04-26 14:10 | 24.42320 | 55.94207 | 22944 ft | 476 kts | 40° |
| 2026-04-26 14:10 | 24.44758 | 55.96647 | 22360 ft | 470 kts | 40° |
| 2026-04-26 14:11 | 24.49512 | 56.01405 | 21320 ft | 458 kts | 40° |
| 2026-04-26 14:11 | 24.51865 | 56.03760 | 20768 ft | 453 kts | 40° |
| 2026-04-26 14:11 | 24.54183 | 56.06081 | 20218 ft | 448 kts | 40° |
| 2026-04-26 14:12 | 24.56466 | 56.08364 | 20035 ft | 450 kts | 40° |
| 2026-04-26 14:12 | 24.58927 | 56.10487 | 19863 ft | 448 kts | 30° |
| 2026-04-26 14:12 | 24.61668 | 56.12050 | 19660 ft | 440 kts | 20° |
| 2026-04-26 14:12 | 24.64559 | 56.13092 | 19426 ft | 433 kts | 10° |
| 2026-04-26 14:13 | 24.70439 | 56.14085 | 18801 ft | 428 kts | 6° |
| 2026-04-26 14:13 | 24.73385 | 56.14592 | 18273 ft | 426 kts | 7° |
| 2026-04-26 14:13 | 24.76296 | 56.15074 | 17658 ft | 418 kts | 2° |
| 2026-04-26 14:14 | 24.79180 | 56.15028 | 17070 ft | 410 kts | 350° |
| 2026-04-26 14:14 | 24.81917 | 56.14410 | 16482 ft | 403 kts | 341° |
| 2026-04-26 14:14 | 24.84509 | 56.13284 | 15903 ft | 396 kts | 333° |
| 2026-04-26 14:14 | 24.86986 | 56.12000 | 15356 ft | 392 kts | 332° |
| 2026-04-26 14:15 | 24.89448 | 56.10729 | 14785 ft | 390 kts | 333° |
| 2026-04-26 14:15 | 24.91912 | 56.09484 | 14216 ft | 388 kts | 333° |
| 2026-04-26 14:15 | 24.94368 | 56.08258 | 13645 ft | 386 kts | 333° |
| 2026-04-26 14:15 | 24.96774 | 56.07006 | 13023 ft | 378 kts | 328° |
| 2026-04-26 14:16 | 24.98792 | 56.05214 | 12442 ft | 366 kts | 310° |
| 2026-04-26 14:16 | 25.00407 | 56.03135 | 12004 ft | 360 kts | 309° |
| 2026-04-26 14:16 | 25.02058 | 56.01056 | 11491 ft | 357 kts | 310° |
| 2026-04-26 14:16 | 25.03719 | 55.99022 | 10973 ft | 359 kts | 310° |
| 2026-04-26 14:17 | 25.04841 | 55.97659 | 10686 ft | 361 kts | 310° |
| 2026-04-26 14:17 | 25.07047 | 55.94982 | 10558 ft | 341 kts | 310° |
| 2026-04-26 14:17 | 25.08564 | 55.93128 | 10345 ft | 311 kts | 310° |
| 2026-04-26 14:17 | 25.09970 | 55.91400 | 10022 ft | 299 kts | 310° |
| 2026-04-26 14:18 | 25.10908 | 55.90246 | 9874 ft | 295 kts | 310° |
| 2026-04-26 14:18 | 25.12244 | 55.88604 | 9690 ft | 288 kts | 310° |
| 2026-04-26 14:18 | 25.13572 | 55.86971 | 9384 ft | 285 kts | 310° |
| 2026-04-26 14:18 | 25.14908 | 55.85329 | 8888 ft | 289 kts | 311° |
| 2026-04-26 14:19 | 25.16198 | 55.83612 | 8382 ft | 291 kts | 304° |
| 2026-04-26 14:19 | 25.17243 | 55.81763 | 7947 ft | 293 kts | 300° |
| 2026-04-26 14:19 | 25.18279 | 55.79817 | 7484 ft | 296 kts | 301° |
| 2026-04-26 14:19 | 25.19323 | 55.77883 | 7134 ft | 293 kts | 301° |
| 2026-04-26 14:20 | 25.20361 | 55.75983 | 6995 ft | 283 kts | 301° |
| 2026-04-26 14:20 | 25.21364 | 55.74169 | 6973 ft | 270 kts | 301° |
| 2026-04-26 14:20 | 25.22259 | 55.72384 | 6957 ft | 264 kts | 290° |
| 2026-04-26 14:20 | 25.22473 | 55.70351 | 6796 ft | 275 kts | 265° |
| 2026-04-26 14:21 | 25.21833 | 55.68337 | 6318 ft | 290 kts | 240° |
| 2026-04-26 14:21 | 25.20389 | 55.66707 | 5734 ft | 305 kts | 219° |
| 2026-04-26 14:21 | 25.18571 | 55.65440 | 5149 ft | 312 kts | 213° |
| 2026-04-26 14:21 | 25.16744 | 55.64156 | 4571 ft | 309 kts | 224° |
| 2026-04-26 14:22 | 25.15479 | 55.62333 | 3938 ft | 290 kts | 249° |
| 2026-04-26 14:22 | 25.15047 | 55.60247 | 3348 ft | 271 kts | 268° |
| 2026-04-26 14:22 | 25.14984 | 55.58211 | 2758 ft | 260 kts | 271° |
| 2026-04-26 14:22 | 25.14990 | 55.56254 | 2263 ft | 247 kts | 276° |
| 2026-04-26 14:23 | 25.15436 | 55.54530 | 2044 ft | 222 kts | 296° |
| 2026-04-26 14:23 | 25.16099 | 55.53085 | 1971 ft | 200 kts | 300° |
| 2026-04-26 14:23 | 25.16763 | 55.51825 | 1994 ft | 187 kts | 302° |
| 2026-04-26 14:23 | 25.17428 | 55.50621 | 2014 ft | 182 kts | 303° |
| 2026-04-26 14:24 | 25.18081 | 55.49441 | 1970 ft | 175 kts | 301° |
| 2026-04-26 14:24 | 25.18703 | 55.48321 | 1811 ft | 168 kts | 301° |
| 2026-04-26 14:24 | 25.19303 | 55.47237 | 1616 ft | 161 kts | 301° |
| 2026-04-26 14:24 | 25.19872 | 55.46208 | 1395 ft | 159 kts | 301° |
| 2026-04-26 14:25 | 25.20451 | 55.45161 | 1225 ft | 159 kts | 300° |
| 2026-04-26 14:25 | 25.21004 | 55.44157 | 1003 ft | 146 kts | 300° |
| 2026-04-26 14:25 | 25.21527 | 55.43214 | 851 ft | 143 kts | 300° |
| 2026-04-26 14:25 | 25.22054 | 55.42259 | 668 ft | 147 kts | 301° |
| 2026-04-26 14:26 | 25.22587 | 55.41286 | 458 ft | 150 kts | 302° |
| 2026-04-26 14:26 | 25.23131 | 55.40301 | 259 ft | 150 kts | 302° |
| 2026-04-26 14:26 | 25.23678 | 55.39335 | 48 ft | 145 kts | 300° |
| 2026-04-26 14:26 | 25.24152 | 55.38469 | 36 ft | 116 kts | 301° |
| 2026-04-26 14:27 | 25.24498 | 55.37852 | 34 ft | 72 kts | 302° |
| 2026-04-26 14:27 | 25.24730 | 55.37428 | 33 ft | 54 kts | 298° |
| 2026-04-26 14:27 | 25.24788 | 55.37161 | 33 ft | 23 kts | 272° |
| 2026-04-26 14:27 | 25.24753 | 55.37082 | 29 ft | 5 kts | 182° |
| 2026-04-26 14:28 | 25.24742 | 55.37088 | 27 ft | 6 kts | 149° |
| 2026-04-26 14:28 | 25.24680 | 55.37133 | 28 ft | 12 kts | 172° |
| 2026-04-26 14:28 | 25.24602 | 55.37095 | 27 ft | 13 kts | 210° |
| 2026-04-26 14:28 | 25.24536 | 55.37051 | 26 ft | 7 kts | 211° |
| 2026-04-26 14:29 | 25.24528 | 55.37045 | 26 ft | 0 kts | 211° |